createdAt,value
2018-07-06T00:00:07.097Z,19.47
2018-07-06T00:01:07.057Z,19.42
2018-07-06T00:02:07.015Z,19.38
2018-07-06T00:03:06.983Z,19.42
2018-07-06T00:04:06.942Z,19.30
2018-07-06T00:05:06.891Z,19.34
2018-07-06T00:06:06.852Z,19.26
2018-07-06T00:07:06.810Z,19.26
2018-07-06T00:08:06.771Z,19.30
2018-07-06T00:09:06.730Z,19.26
2018-07-06T00:10:06.690Z,19.20
2018-07-06T00:11:06.742Z,19.19
2018-07-06T00:12:06.611Z,19.17
2018-07-06T00:13:06.566Z,19.07
2018-07-06T00:14:06.527Z,19.15
2018-07-06T00:15:06.487Z,19.01
2018-07-06T00:16:06.448Z,19.04
2018-07-06T00:17:06.406Z,19.05
2018-07-06T00:18:06.366Z,18.94
2018-07-06T00:19:06.325Z,18.92
2018-07-06T00:20:06.283Z,18.94
2018-07-06T00:21:06.242Z,18.83
2018-07-06T00:22:06.203Z,18.88
2018-07-06T00:23:06.165Z,18.86
2018-07-06T00:24:06.133Z,18.98
2018-07-06T00:25:06.081Z,18.86
2018-07-06T00:26:06.042Z,18.92
2018-07-06T00:27:06.023Z,18.88
2018-07-06T00:28:05.959Z,18.85
2018-07-06T00:29:05.917Z,18.83
2018-07-06T00:30:05.881Z,18.88
2018-07-06T00:31:05.836Z,18.97
2018-07-06T00:32:05.795Z,18.85
2018-07-06T00:33:05.757Z,18.83
2018-07-06T00:34:05.718Z,18.94
2018-07-06T00:35:05.675Z,18.79
2018-07-06T00:36:05.634Z,18.79
2018-07-06T00:37:05.593Z,18.81
2018-07-06T00:38:05.551Z,18.82
2018-07-06T00:39:05.511Z,18.82
2018-07-06T00:40:05.470Z,18.74
2018-07-06T00:41:05.431Z,18.82
2018-07-06T00:42:05.388Z,18.78
2018-07-06T00:43:05.348Z,18.79
2018-07-06T00:44:05.306Z,18.79
2018-07-06T00:45:05.271Z,18.73
2018-07-06T00:46:05.227Z,18.73
2018-07-06T00:47:05.184Z,18.71
2018-07-06T00:48:05.155Z,18.73
2018-07-06T00:49:05.104Z,18.68
2018-07-06T00:50:05.065Z,18.73
2018-07-06T00:51:05.022Z,18.74
2018-07-06T00:52:04.987Z,18.76
2018-07-06T00:53:04.949Z,18.58
2018-07-06T00:54:04.904Z,18.57
2018-07-06T00:55:04.857Z,18.64
2018-07-06T00:56:04.818Z,18.60
2018-07-06T00:57:04.801Z,18.61
2018-07-06T00:58:04.738Z,18.61
2018-07-06T00:59:04.704Z,18.55
2018-07-06T01:00:04.662Z,18.57
2018-07-06T01:01:04.620Z,18.48
2018-07-06T01:02:04.572Z,18.52
2018-07-06T01:03:04.532Z,18.55
2018-07-06T01:04:04.497Z,18.46
2018-07-06T01:05:04.455Z,18.52
2018-07-06T01:06:04.412Z,18.52
2018-07-06T01:07:04.371Z,18.48
2018-07-06T01:08:04.328Z,18.53
2018-07-06T01:09:04.288Z,18.39
2018-07-06T01:10:04.302Z,18.37
2018-07-06T01:11:04.208Z,18.39
2018-07-06T01:12:04.164Z,18.41
2018-07-06T01:13:04.122Z,18.31
2018-07-06T01:14:04.085Z,18.33
2018-07-06T01:15:04.048Z,18.28
2018-07-06T01:16:04.011Z,18.21
2018-07-06T01:17:03.966Z,18.19
2018-07-06T01:18:03.925Z,18.18
2018-07-06T01:19:03.884Z,18.18
2018-07-06T01:20:03.837Z,18.06
2018-07-06T01:21:03.800Z,18.08
2018-07-06T01:22:03.756Z,18.08
2018-07-06T01:23:03.716Z,18.12
2018-07-06T01:24:03.677Z,18.05
2018-07-06T01:25:03.639Z,18.03
2018-07-06T01:26:03.594Z,18.09
2018-07-06T01:27:03.553Z,18.06
2018-07-06T01:28:03.511Z,18.06
2018-07-06T01:29:03.473Z,18.08
2018-07-06T01:30:03.432Z,17.95
2018-07-06T01:31:03.391Z,17.95
2018-07-06T01:32:03.346Z,18.08
2018-07-06T01:33:03.308Z,18.05
2018-07-06T01:34:03.262Z,18.03
2018-07-06T01:35:03.224Z,17.95
2018-07-06T01:36:03.180Z,17.90
2018-07-06T01:37:03.143Z,17.97
2018-07-06T01:38:03.099Z,17.97
2018-07-06T01:39:03.056Z,17.95
2018-07-06T01:40:03.023Z,17.94
2018-07-06T01:41:02.977Z,17.93
2018-07-06T01:42:02.937Z,17.94
2018-07-06T01:43:02.895Z,17.94
2018-07-06T01:44:02.857Z,17.88
2018-07-06T01:45:02.813Z,17.88
2018-07-06T01:46:02.772Z,17.94
2018-07-06T01:47:02.730Z,17.82
2018-07-06T01:48:02.688Z,17.86
2018-07-06T01:49:02.647Z,17.91
2018-07-06T01:50:02.606Z,17.86
2018-07-06T01:51:02.567Z,17.82
2018-07-06T01:52:02.524Z,17.84
2018-07-06T01:53:02.487Z,17.82
2018-07-06T01:54:02.444Z,17.80
2018-07-06T01:55:02.402Z,17.82
2018-07-06T01:56:02.362Z,17.84
2018-07-06T01:57:02.319Z,17.79
2018-07-06T01:58:02.278Z,17.84
2018-07-06T01:59:02.265Z,17.73
2018-07-06T02:00:02.200Z,17.73
2018-07-06T02:01:02.156Z,17.79
2018-07-06T02:02:02.119Z,17.71
2018-07-06T02:03:02.077Z,17.76
2018-07-06T02:04:02.036Z,17.71
2018-07-06T02:05:01.999Z,17.71
2018-07-06T02:06:01.950Z,17.69
2018-07-06T02:07:01.909Z,17.65
2018-07-06T02:08:01.865Z,17.68
2018-07-06T02:09:01.836Z,17.72
2018-07-06T02:10:01.791Z,17.69
2018-07-06T02:11:01.744Z,17.66
2018-07-06T02:12:01.698Z,17.63
2018-07-06T02:13:01.659Z,17.57
2018-07-06T02:14:01.618Z,17.59
2018-07-06T02:15:01.579Z,17.59
2018-07-06T02:16:01.544Z,17.63
2018-07-06T02:17:01.492Z,17.60
2018-07-06T02:18:01.455Z,17.57
2018-07-06T02:19:01.414Z,17.53
2018-07-06T02:20:01.369Z,17.54
2018-07-06T02:21:01.331Z,17.46
2018-07-06T02:22:01.291Z,17.49
2018-07-06T02:23:01.243Z,17.44
2018-07-06T02:24:01.204Z,17.47
2018-07-06T02:25:01.170Z,17.50
2018-07-06T02:26:01.126Z,17.46
2018-07-06T02:27:01.079Z,17.46
2018-07-06T02:28:01.041Z,17.38
2018-07-06T02:29:00.997Z,17.37
2018-07-06T02:30:00.959Z,17.30
2018-07-06T02:31:00.916Z,17.28
2018-07-06T02:32:00.878Z,17.35
2018-07-06T02:33:00.834Z,17.30
2018-07-06T02:34:00.791Z,17.38
2018-07-06T02:35:00.758Z,17.23
2018-07-06T02:36:00.708Z,17.23
2018-07-06T02:37:00.670Z,17.27
2018-07-06T02:38:00.626Z,17.23
2018-07-06T02:39:00.585Z,17.22
2018-07-06T02:40:00.547Z,17.13
2018-07-06T02:41:00.505Z,17.07
2018-07-06T02:42:00.472Z,17.16
2018-07-06T02:43:00.416Z,17.13
2018-07-06T02:44:00.376Z,17.13
2018-07-06T02:45:00.338Z,17.04
2018-07-06T02:46:00.294Z,17.10
2018-07-06T02:47:00.251Z,17.10
2018-07-06T02:48:00.209Z,17.01
2018-07-06T02:49:00.170Z,17.02
2018-07-06T02:50:00.130Z,16.99
2018-07-06T02:51:00.084Z,17.04
2018-07-06T02:52:00.048Z,16.98
2018-07-06T02:53:00.010Z,17.04
2018-07-06T02:53:59.963Z,17.01
2018-07-06T02:54:59.939Z,16.92
2018-07-06T02:55:59.883Z,16.98
2018-07-06T02:56:59.838Z,16.92
2018-07-06T02:57:59.800Z,16.87
2018-07-06T02:58:59.753Z,16.83
2018-07-06T02:59:59.716Z,16.89
2018-07-06T03:00:59.672Z,16.87
2018-07-06T03:01:59.638Z,16.87
2018-07-06T03:02:59.590Z,16.84
2018-07-06T03:03:59.547Z,16.83
2018-07-06T03:04:59.515Z,16.83
2018-07-06T03:05:59.475Z,16.79
2018-07-06T03:06:59.421Z,16.83
2018-07-06T03:07:59.385Z,16.79
2018-07-06T03:08:59.338Z,16.77
2018-07-06T03:09:59.299Z,16.74
2018-07-06T03:10:59.256Z,16.69
2018-07-06T03:11:59.218Z,16.79
2018-07-06T03:12:59.170Z,16.65
2018-07-06T03:13:59.130Z,16.66
2018-07-06T03:14:59.086Z,16.59
2018-07-06T03:15:59.050Z,16.61
2018-07-06T03:16:59.005Z,16.54
2018-07-06T03:17:58.965Z,16.57
2018-07-06T03:18:58.923Z,16.59
2018-07-06T03:19:58.877Z,16.57
2018-07-06T03:20:58.836Z,16.57
2018-07-06T03:21:58.796Z,16.55
2018-07-06T03:22:58.754Z,16.57
2018-07-06T03:23:58.717Z,16.61
2018-07-06T03:24:58.670Z,16.54
2018-07-06T03:25:58.628Z,16.55
2018-07-06T03:26:58.585Z,16.50
2018-07-06T03:27:58.570Z,16.51
2018-07-06T03:28:58.505Z,16.57
2018-07-06T03:29:58.463Z,16.49
2018-07-06T03:30:58.418Z,16.51
2018-07-06T03:31:58.376Z,16.49
2018-07-06T03:32:58.337Z,16.54
2018-07-06T03:33:58.323Z,16.47
2018-07-06T03:34:58.259Z,16.44
2018-07-06T03:35:58.213Z,16.51
2018-07-06T03:36:58.177Z,16.47
2018-07-06T03:37:58.126Z,16.46
2018-07-06T03:38:58.086Z,16.40
2018-07-06T03:39:58.044Z,16.40
2018-07-06T03:40:57.999Z,16.46
2018-07-06T03:41:57.960Z,16.50
2018-07-06T03:42:57.918Z,16.41
2018-07-06T03:43:57.874Z,16.49
2018-07-06T03:44:57.835Z,16.41
2018-07-06T03:45:57.791Z,16.47
2018-07-06T03:46:57.750Z,16.37
2018-07-06T03:47:57.730Z,16.40
2018-07-06T03:48:57.666Z,16.36
2018-07-06T03:49:57.624Z,16.37
2018-07-06T03:50:57.585Z,16.32
2018-07-06T03:51:57.544Z,16.28
2018-07-06T03:52:57.498Z,16.39
2018-07-06T03:53:57.456Z,16.36
2018-07-06T03:54:57.456Z,16.25
2018-07-06T03:55:57.373Z,16.34
2018-07-06T03:56:57.340Z,16.28
2018-07-06T03:57:57.289Z,16.31
2018-07-06T03:58:57.247Z,16.39
2018-07-06T03:59:57.205Z,16.21
2018-07-06T04:00:57.171Z,16.28
2018-07-06T04:01:57.125Z,16.36
2018-07-06T04:02:57.080Z,16.24
2018-07-06T04:03:57.038Z,16.37
2018-07-06T04:04:56.998Z,16.34
2018-07-06T04:05:56.956Z,16.39
2018-07-06T04:06:56.916Z,16.31
2018-07-06T04:07:56.872Z,16.26
2018-07-06T04:08:56.835Z,16.39
2018-07-06T04:09:56.791Z,16.36
2018-07-06T04:10:56.744Z,16.46
2018-07-06T04:11:56.707Z,16.40
2018-07-06T04:12:56.661Z,16.43
2018-07-06T04:13:56.620Z,16.47
2018-07-06T04:14:56.584Z,16.47
2018-07-06T04:15:56.607Z,16.55
2018-07-06T04:16:56.495Z,16.57
2018-07-06T04:17:56.452Z,16.59
2018-07-06T04:18:56.410Z,16.57
2018-07-06T04:19:56.371Z,16.65
2018-07-06T04:20:56.329Z,16.55
2018-07-06T04:21:56.286Z,16.72
2018-07-06T04:22:56.246Z,16.73
2018-07-06T04:23:56.204Z,16.73
2018-07-06T04:24:56.165Z,16.77
2018-07-06T04:25:56.132Z,16.73
2018-07-06T04:26:56.088Z,16.83
2018-07-06T04:27:56.037Z,16.82
2018-07-06T04:28:55.997Z,16.87
2018-07-06T04:29:55.952Z,16.87
2018-07-06T04:30:55.910Z,16.97
2018-07-06T04:31:55.875Z,16.97
2018-07-06T04:32:55.828Z,17.01
2018-07-06T04:33:55.786Z,16.99
2018-07-06T04:34:40.033Z,16.92
2018-07-06T04:35:39.999Z,16.95
2018-07-06T04:36:39.952Z,17.10
2018-07-06T04:37:39.911Z,16.99
2018-07-06T04:38:39.889Z,17.01
2018-07-06T04:39:39.832Z,17.07
2018-07-06T04:40:39.789Z,17.17
2018-07-06T04:41:39.740Z,17.20
2018-07-06T04:42:39.699Z,17.16
2018-07-06T04:43:39.658Z,17.20
2018-07-06T04:44:39.615Z,17.22
2018-07-06T04:45:39.575Z,17.30
2018-07-06T04:46:39.537Z,17.30
2018-07-06T04:47:39.491Z,17.32
2018-07-06T04:48:39.451Z,17.38
2018-07-06T04:49:39.408Z,17.23
2018-07-06T04:50:39.370Z,17.23
2018-07-06T04:51:39.325Z,17.39
2018-07-06T04:52:39.283Z,17.35
2018-07-06T04:53:39.244Z,17.42
2018-07-06T04:54:39.200Z,17.42
2018-07-06T04:55:39.157Z,17.49
2018-07-06T04:56:39.118Z,17.52
2018-07-06T04:57:39.081Z,17.56
2018-07-06T04:58:39.037Z,17.52
2018-07-06T04:59:38.992Z,17.57
2018-07-06T05:00:38.953Z,17.59
2018-07-06T05:01:38.911Z,17.66
2018-07-06T05:02:38.871Z,17.71
2018-07-06T05:03:38.827Z,17.69
2018-07-06T05:04:38.789Z,17.73
2018-07-06T05:05:38.745Z,17.75
2018-07-06T05:06:38.706Z,17.75
2018-07-06T05:07:38.692Z,17.76
2018-07-06T05:08:38.620Z,17.87
2018-07-06T05:09:38.577Z,17.82
2018-07-06T05:10:38.536Z,17.90
2018-07-06T05:11:38.497Z,17.88
2018-07-06T05:12:38.457Z,17.95
2018-07-06T05:13:38.415Z,17.97
2018-07-06T05:14:38.372Z,18.00
2018-07-06T05:15:38.331Z,18.09
2018-07-06T05:16:38.310Z,17.98
2018-07-06T05:17:38.250Z,18.06
2018-07-06T05:18:38.205Z,18.08
2018-07-06T05:19:38.166Z,18.16
2018-07-06T05:20:38.125Z,18.12
2018-07-06T05:21:38.084Z,18.19
2018-07-06T05:22:38.077Z,18.13
2018-07-06T05:23:38.010Z,18.21
2018-07-06T05:24:37.960Z,18.33
2018-07-06T05:25:37.922Z,18.26
2018-07-06T05:26:37.878Z,18.37
2018-07-06T05:27:37.836Z,18.30
2018-07-06T05:28:37.798Z,18.37
2018-07-06T05:29:37.758Z,18.41
2018-07-06T05:30:37.715Z,18.39
2018-07-06T05:31:37.674Z,18.45
2018-07-06T05:32:37.629Z,18.43
2018-07-06T05:33:37.591Z,18.46
2018-07-06T05:34:37.556Z,18.48
2018-07-06T05:35:37.509Z,18.45
2018-07-06T05:36:37.471Z,18.52
2018-07-06T05:37:37.426Z,18.53
2018-07-06T05:38:37.386Z,18.52
2018-07-06T05:39:37.345Z,18.60
2018-07-06T05:40:37.308Z,18.60
2018-07-06T05:41:37.261Z,18.55
2018-07-06T05:42:37.220Z,18.55
2018-07-06T05:43:37.180Z,18.53
2018-07-06T05:44:37.138Z,18.68
2018-07-06T05:45:37.097Z,18.67
2018-07-06T05:46:37.059Z,18.61
2018-07-06T05:47:37.016Z,18.70
2018-07-06T05:48:36.973Z,18.64
2018-07-06T05:49:36.935Z,18.73
2018-07-06T05:50:36.892Z,18.73
2018-07-06T05:51:36.853Z,18.61
2018-07-06T05:52:36.816Z,18.74
2018-07-06T05:53:36.769Z,18.79
2018-07-06T05:54:36.734Z,18.74
2018-07-06T05:55:36.689Z,18.81
2018-07-06T05:56:36.647Z,18.74
2018-07-06T05:57:36.609Z,18.81
2018-07-06T05:58:36.571Z,18.70
2018-07-06T05:59:36.526Z,18.86
2018-07-06T06:00:36.487Z,18.83
2018-07-06T06:01:36.444Z,18.78
2018-07-06T06:02:36.403Z,18.81
2018-07-06T06:03:36.362Z,18.86
2018-07-06T06:04:36.367Z,18.88
2018-07-06T06:05:36.281Z,18.83
2018-07-06T06:06:36.241Z,18.82
2018-07-06T06:07:36.200Z,18.91
2018-07-06T06:08:36.156Z,18.81
2018-07-06T06:09:36.120Z,18.85
2018-07-06T06:10:36.082Z,18.88
2018-07-06T06:11:36.036Z,18.86
2018-07-06T06:12:35.995Z,18.92
2018-07-06T06:13:35.954Z,18.96
2018-07-06T06:14:35.914Z,18.85
2018-07-06T06:15:35.873Z,18.89
2018-07-06T06:16:35.831Z,18.92
2018-07-06T06:17:35.791Z,18.98
2018-07-06T06:18:35.793Z,18.94
2018-07-06T06:19:35.709Z,18.97
2018-07-06T06:20:35.672Z,18.96
2018-07-06T06:21:35.628Z,18.94
2018-07-06T06:22:35.586Z,18.97
2018-07-06T06:23:35.548Z,19.01
2018-07-06T06:24:35.506Z,18.98
2018-07-06T06:25:35.466Z,18.97
2018-07-06T06:26:35.424Z,19.07
2018-07-06T06:27:35.385Z,19.01
2018-07-06T06:28:35.347Z,19.11
2018-07-06T06:29:35.302Z,19.17
2018-07-06T06:30:35.262Z,19.15
2018-07-06T06:31:35.222Z,19.11
2018-07-06T06:32:35.182Z,19.15
2018-07-06T06:33:35.255Z,19.22
2018-07-06T06:34:35.100Z,19.22
2018-07-06T06:35:35.060Z,19.22
2018-07-06T06:36:35.019Z,19.26
2018-07-06T06:37:34.978Z,19.20
2018-07-06T06:38:34.935Z,19.23
2018-07-06T06:39:34.902Z,19.20
2018-07-06T06:40:34.856Z,19.34
2018-07-06T06:41:34.817Z,19.37
2018-07-06T06:42:34.774Z,19.37
2018-07-06T06:43:34.736Z,19.42
2018-07-06T06:44:34.691Z,19.45
2018-07-06T06:45:34.655Z,19.44
2018-07-06T06:46:34.658Z,19.59
2018-07-06T06:47:34.571Z,19.56
2018-07-06T06:48:34.531Z,19.59
2018-07-06T06:49:34.491Z,19.62
2018-07-06T06:50:34.449Z,19.72
2018-07-06T06:51:34.412Z,19.75
2018-07-06T06:52:34.367Z,19.75
2018-07-06T06:53:34.327Z,19.78
2018-07-06T06:54:34.286Z,19.89
2018-07-06T06:55:34.249Z,19.85
2018-07-06T06:56:34.204Z,19.93
2018-07-06T06:57:34.165Z,19.89
2018-07-06T06:58:34.126Z,20.00
2018-07-06T06:59:34.087Z,19.97
2018-07-06T07:00:34.043Z,20.00
2018-07-06T07:01:34.005Z,20.02
2018-07-06T07:02:33.962Z,19.99
2018-07-06T07:03:33.924Z,20.00
2018-07-06T07:04:33.883Z,20.11
2018-07-06T07:05:33.844Z,20.12
2018-07-06T07:06:33.803Z,20.07
2018-07-06T07:07:33.855Z,20.15
2018-07-06T07:08:33.723Z,20.08
2018-07-06T07:09:33.686Z,20.08
2018-07-06T07:10:33.642Z,20.10
2018-07-06T07:11:33.600Z,20.08
2018-07-06T07:12:33.559Z,20.19
2018-07-06T07:13:33.521Z,20.07
2018-07-06T07:14:33.480Z,20.17
2018-07-06T07:15:33.443Z,20.24
2018-07-06T07:16:33.400Z,20.22
2018-07-06T07:17:33.359Z,20.30
2018-07-06T07:18:33.318Z,20.36
2018-07-06T07:19:33.282Z,20.21
2018-07-06T07:20:33.239Z,20.37
2018-07-06T07:21:33.198Z,20.21
2018-07-06T07:22:33.159Z,20.27
2018-07-06T07:23:33.121Z,20.32
2018-07-06T07:24:33.078Z,20.33
2018-07-06T07:25:33.041Z,20.34
2018-07-06T07:26:33.149Z,20.34
2018-07-06T07:27:32.961Z,20.36
2018-07-06T07:28:32.920Z,20.46
2018-07-06T07:29:32.879Z,20.44
2018-07-06T07:30:32.837Z,20.39
2018-07-06T07:31:32.800Z,20.46
2018-07-06T07:32:32.759Z,20.42
2018-07-06T07:33:32.723Z,20.48
2018-07-06T07:34:32.677Z,20.46
2018-07-06T07:35:32.643Z,20.48
2018-07-06T07:36:32.597Z,20.48
2018-07-06T07:37:32.558Z,20.48
2018-07-06T07:38:32.521Z,20.48
2018-07-06T07:39:32.477Z,20.49
2018-07-06T07:40:32.440Z,20.56
2018-07-06T07:41:32.400Z,20.55
2018-07-06T07:42:32.359Z,20.55
2018-07-06T07:43:32.321Z,20.59
2018-07-06T07:44:32.282Z,20.56
2018-07-06T07:45:32.238Z,20.68
2018-07-06T07:46:32.322Z,20.66
2018-07-06T07:47:32.159Z,20.73
2018-07-06T07:48:32.126Z,20.82
2018-07-06T07:49:32.078Z,20.78
2018-07-06T07:50:32.039Z,20.78
2018-07-06T07:51:32.000Z,20.92
2018-07-06T07:52:31.961Z,20.86
2018-07-06T07:53:31.919Z,20.85
2018-07-06T07:54:31.897Z,20.86
2018-07-06T07:55:31.847Z,20.88
2018-07-06T07:56:31.798Z,20.85
2018-07-06T07:57:31.761Z,20.95
2018-07-06T07:58:31.721Z,20.95
2018-07-06T07:59:31.682Z,20.93
2018-07-06T08:00:31.708Z,21.04
2018-07-06T08:01:31.627Z,21.13
2018-07-06T08:02:31.561Z,21.22
2018-07-06T08:03:31.520Z,21.29
2018-07-06T08:04:31.483Z,21.25
2018-07-06T08:05:31.440Z,21.30
2018-07-06T08:06:31.414Z,21.41
2018-07-06T08:07:31.363Z,21.35
2018-07-06T08:08:31.321Z,21.43
2018-07-06T08:09:31.281Z,21.33
2018-07-06T08:10:31.242Z,21.33
2018-07-06T08:11:35.445Z,21.47
2018-07-06T08:12:31.171Z,21.47
2018-07-06T08:13:31.125Z,21.59
2018-07-06T08:14:31.149Z,21.65
2018-07-06T08:15:31.048Z,21.77
2018-07-06T08:16:31.005Z,21.77
2018-07-06T08:17:30.964Z,21.80
2018-07-06T08:18:30.938Z,21.78
2018-07-06T08:19:30.889Z,21.83
2018-07-06T08:20:30.848Z,21.91
2018-07-06T08:21:30.864Z,21.92
2018-07-06T08:22:30.768Z,22.00
2018-07-06T08:23:30.736Z,22.07
2018-07-06T08:24:30.689Z,22.14
2018-07-06T08:25:30.685Z,22.08
2018-07-06T08:26:30.615Z,22.12
2018-07-06T08:27:33.181Z,22.19
2018-07-06T08:28:30.533Z,22.19
2018-07-06T08:29:30.496Z,22.33
2018-07-06T08:30:30.460Z,22.30
2018-07-06T08:31:30.436Z,22.40
2018-07-06T08:32:30.380Z,22.44
2018-07-06T08:33:30.344Z,22.56
2018-07-06T08:34:30.301Z,22.65
2018-07-06T08:35:30.258Z,22.76
2018-07-06T08:36:30.260Z,22.76
2018-07-06T08:37:30.180Z,22.80
2018-07-06T08:38:30.141Z,22.92
2018-07-06T08:39:30.157Z,22.99
2018-07-06T08:40:30.063Z,23.06
2018-07-06T08:41:30.025Z,23.14
2018-07-06T08:42:29.985Z,23.20
2018-07-06T08:43:29.952Z,23.36
2018-07-06T08:44:29.907Z,23.42
2018-07-06T08:45:29.871Z,23.49
2018-07-06T08:46:29.836Z,23.59
2018-07-06T08:47:29.793Z,23.74
2018-07-06T08:48:29.754Z,23.66
2018-07-06T08:49:29.715Z,23.85
2018-07-06T08:50:29.790Z,23.95
2018-07-06T08:51:29.642Z,23.96
2018-07-06T08:52:29.600Z,24.14
2018-07-06T08:53:29.563Z,24.14
2018-07-06T08:54:29.528Z,24.24
2018-07-06T08:55:29.488Z,24.26
2018-07-06T08:56:29.450Z,24.22
2018-07-06T08:57:29.409Z,24.21
2018-07-06T08:58:29.469Z,24.22
2018-07-06T08:59:29.337Z,24.31
2018-07-06T09:00:29.299Z,24.47
2018-07-06T09:01:29.259Z,24.41
2018-07-06T09:02:29.222Z,24.38
2018-07-06T09:03:29.187Z,24.40
2018-07-06T09:04:29.256Z,24.47
2018-07-06T09:05:29.103Z,24.48
2018-07-06T09:06:29.071Z,24.69
2018-07-06T09:07:29.068Z,24.79
2018-07-06T09:08:28.989Z,24.82
2018-07-06T09:09:29.062Z,24.85
2018-07-06T09:10:28.915Z,24.89
2018-07-06T09:11:28.877Z,24.82
2018-07-06T09:12:28.838Z,24.75
2018-07-06T09:13:28.802Z,24.81
2018-07-06T09:14:28.766Z,24.77
2018-07-06T09:15:28.727Z,24.78
2018-07-06T09:16:28.687Z,24.93
2018-07-06T09:17:28.653Z,24.99
2018-07-06T09:18:28.614Z,24.97
2018-07-06T09:19:28.632Z,24.85
2018-07-06T09:20:28.537Z,24.81
2018-07-06T09:21:28.514Z,24.82
2018-07-06T09:22:28.463Z,24.86
2018-07-06T09:23:28.428Z,24.97
2018-07-06T09:24:28.387Z,24.96
2018-07-06T09:25:28.501Z,25.06
2018-07-06T09:26:28.363Z,25.09
2018-07-06T09:27:28.282Z,25.11
2018-07-06T09:28:33.485Z,25.26
2018-07-06T09:29:28.200Z,25.29
2018-07-06T09:30:28.162Z,25.39
2018-07-06T09:31:28.126Z,25.33
2018-07-06T09:32:28.084Z,25.48
2018-07-06T09:33:28.049Z,25.46
2018-07-06T09:34:28.011Z,25.51
2018-07-06T09:35:27.973Z,25.62
2018-07-06T09:36:27.937Z,25.66
2018-07-06T09:37:27.900Z,25.73
2018-07-06T09:38:27.862Z,25.73
2018-07-06T09:39:27.823Z,25.77
2018-07-06T09:40:27.787Z,25.76
2018-07-06T09:41:27.751Z,25.89
2018-07-06T09:42:27.714Z,25.92
2018-07-06T09:43:27.732Z,26.01
2018-07-06T09:44:27.639Z,26.04
2018-07-06T09:45:27.607Z,25.99
2018-07-06T09:46:27.565Z,26.06
2018-07-06T09:47:27.533Z,26.24
2018-07-06T09:48:27.491Z,26.16
2018-07-06T09:49:27.453Z,26.29
2018-07-06T09:50:27.416Z,26.30
2018-07-06T09:51:27.379Z,26.45
2018-07-06T09:52:27.340Z,26.52
2018-07-06T09:53:27.302Z,26.71
2018-07-06T09:54:27.267Z,26.61
2018-07-06T09:55:27.228Z,26.55
2018-07-06T09:56:27.197Z,26.59
2018-07-06T09:57:27.156Z,26.56
2018-07-06T09:58:27.121Z,26.67
2018-07-06T09:59:27.081Z,26.73
2018-07-06T10:00:27.046Z,26.85
2018-07-06T10:01:27.009Z,26.89
2018-07-06T10:02:26.975Z,26.97
2018-07-06T10:03:26.936Z,26.98
2018-07-06T10:04:26.954Z,27.04
2018-07-06T10:05:26.862Z,27.03
2018-07-06T10:06:26.830Z,27.18
2018-07-06T10:07:26.789Z,27.20
2018-07-06T10:08:26.754Z,27.26
2018-07-06T10:09:26.716Z,27.29
2018-07-06T10:10:26.681Z,27.33
2018-07-06T10:11:26.647Z,27.43
2018-07-06T10:12:26.639Z,27.45
2018-07-06T10:13:26.573Z,27.58
2018-07-06T10:14:26.535Z,27.60
2018-07-06T10:15:26.498Z,27.68
2018-07-06T10:16:26.460Z,27.76
2018-07-06T10:17:26.426Z,27.76
2018-07-06T10:18:26.389Z,27.76
2018-07-06T10:19:26.373Z,27.90
2018-07-06T10:20:26.316Z,27.91
2018-07-06T10:21:26.283Z,27.97
2018-07-06T10:22:26.244Z,27.91
2018-07-06T10:23:26.210Z,28.00
2018-07-06T10:24:26.172Z,28.19
2018-07-06T10:25:26.135Z,28.20
2018-07-06T10:26:26.105Z,28.27
2018-07-06T10:27:26.119Z,28.27
2018-07-06T10:28:26.029Z,28.31
2018-07-06T10:29:25.993Z,28.37
2018-07-06T10:30:25.960Z,28.40
2018-07-06T10:31:25.924Z,28.43
2018-07-06T10:32:25.888Z,28.59
2018-07-06T10:33:25.876Z,28.59
2018-07-06T10:34:25.838Z,28.55
2018-07-06T10:35:25.779Z,28.53
2018-07-06T10:36:25.742Z,28.70
2018-07-06T10:37:25.706Z,28.56
2018-07-06T10:38:25.701Z,28.55
2018-07-06T10:39:25.649Z,28.67
2018-07-06T10:40:25.601Z,28.74
2018-07-06T10:41:25.565Z,28.83
2018-07-06T10:42:25.539Z,28.74
2018-07-06T10:43:25.499Z,28.64
2018-07-06T10:44:25.474Z,28.53
2018-07-06T10:45:25.441Z,28.52
2018-07-06T10:46:25.387Z,28.65
2018-07-06T10:47:25.357Z,28.57
2018-07-06T10:48:25.316Z,28.59
2018-07-06T10:49:25.284Z,28.74
2018-07-06T10:50:25.247Z,28.75
2018-07-06T10:51:25.211Z,28.62
2018-07-06T10:52:25.176Z,28.47
2018-07-06T10:53:25.139Z,28.50
2018-07-06T10:54:25.111Z,28.70
2018-07-06T10:55:25.071Z,28.77
2018-07-06T10:56:25.033Z,28.71
2018-07-06T10:57:24.997Z,28.70
2018-07-06T10:58:24.962Z,28.60
2018-07-06T10:59:24.966Z,28.60
2018-07-06T11:00:24.892Z,28.46
2018-07-06T11:01:24.859Z,28.50
2018-07-06T11:02:24.820Z,28.56
2018-07-06T11:03:24.788Z,28.59
2018-07-06T11:04:24.748Z,28.68
2018-07-06T11:05:24.717Z,28.70
2018-07-06T11:06:24.723Z,28.72
2018-07-06T11:07:24.650Z,28.82
2018-07-06T11:08:24.606Z,28.92
2018-07-06T11:09:24.571Z,29.06
2018-07-06T11:10:24.541Z,29.09
2018-07-06T11:11:24.515Z,29.12
2018-07-06T11:12:24.470Z,29.27
2018-07-06T11:13:24.433Z,29.40
2018-07-06T11:14:24.398Z,29.47
2018-07-06T11:15:24.359Z,29.43
2018-07-06T11:16:24.322Z,29.42
2018-07-06T11:17:24.290Z,29.32
2018-07-06T11:18:24.253Z,29.34
2018-07-06T11:19:24.218Z,29.50
2018-07-06T11:20:24.187Z,29.52
2018-07-06T11:21:24.147Z,29.49
2018-07-06T11:22:24.117Z,29.40
2018-07-06T11:23:24.083Z,29.43
2018-07-06T11:24:24.044Z,29.43
2018-07-06T11:25:24.172Z,29.49
2018-07-06T11:27:23.938Z,29.77
2018-07-06T11:28:23.907Z,29.67
2018-07-06T11:29:23.871Z,29.87
2018-07-06T11:30:23.836Z,29.84
2018-07-06T11:31:23.800Z,30.01
2018-07-06T11:32:23.762Z,30.01
2018-07-06T11:33:23.733Z,29.96
2018-07-06T11:34:23.709Z,29.98
2018-07-06T11:35:23.665Z,30.21
2018-07-06T11:36:23.651Z,30.24
2018-07-06T11:37:23.587Z,30.33
2018-07-06T11:38:23.561Z,30.26
2018-07-06T11:39:23.519Z,30.39
2018-07-06T11:40:23.484Z,30.23
2018-07-06T11:41:23.451Z,30.20
2018-07-06T11:42:23.414Z,30.39
2018-07-06T11:43:23.381Z,30.52
2018-07-06T11:44:23.373Z,30.54
2018-07-06T11:45:23.314Z,30.48
2018-07-06T11:46:23.281Z,30.69
2018-07-06T11:47:23.240Z,30.58
2018-07-06T11:48:23.205Z,30.67
2018-07-06T11:49:23.174Z,30.58
2018-07-06T11:50:23.141Z,30.67
2018-07-06T11:51:23.104Z,30.83
2018-07-06T11:52:23.070Z,31.07
2018-07-06T11:53:23.040Z,31.17
2018-07-06T11:54:23.004Z,31.02
2018-07-06T11:55:22.966Z,30.89
2018-07-06T11:56:22.973Z,30.83
2018-07-06T11:57:22.900Z,30.77
2018-07-06T11:58:22.882Z,30.81
2018-07-06T11:59:22.830Z,31.18
2018-07-06T12:00:22.794Z,31.36
2018-07-06T12:01:22.762Z,31.32
2018-07-06T12:02:22.727Z,31.39
2018-07-06T12:04:22.811Z,31.67
2018-07-06T12:05:22.623Z,31.93
2018-07-06T12:06:22.591Z,31.97
2018-07-06T12:07:22.554Z,32.16
2018-07-06T12:08:22.521Z,32.05
2018-07-06T12:09:22.491Z,31.90
2018-07-06T12:10:22.454Z,32.00
2018-07-06T12:11:22.421Z,31.93
2018-07-06T12:12:22.386Z,32.07
2018-07-06T12:13:22.353Z,32.16
2018-07-06T12:14:22.318Z,32.26
2018-07-06T12:15:22.284Z,32.48
2018-07-06T12:16:22.250Z,32.46
2018-07-06T12:17:22.217Z,32.75
2018-07-06T12:18:22.186Z,32.97
2018-07-06T12:19:22.152Z,32.98
2018-07-06T12:20:22.115Z,33.19
2018-07-06T12:21:22.150Z,33.38
2018-07-06T12:22:22.051Z,33.31
2018-07-06T12:23:22.025Z,33.13
2018-07-06T12:24:21.986Z,32.94
2018-07-06T12:25:21.953Z,32.68
2018-07-06T12:26:21.918Z,32.63
2018-07-06T12:27:21.884Z,32.51
2018-07-06T12:28:21.855Z,32.39
2018-07-06T12:29:21.817Z,32.23
2018-07-06T12:30:21.786Z,32.19
2018-07-06T12:31:21.753Z,32.04
2018-07-06T12:32:21.734Z,32.00
2018-07-06T12:33:21.686Z,32.08
2018-07-06T12:34:21.660Z,32.68
2018-07-06T12:35:21.623Z,33.20
2018-07-06T12:36:21.584Z,33.66
2018-07-06T12:37:21.554Z,34.14
2018-07-06T12:38:21.523Z,34.25
2018-07-06T12:39:21.489Z,33.92
2018-07-06T12:40:21.455Z,33.50
2018-07-06T12:41:21.423Z,33.16
2018-07-06T12:42:21.395Z,32.97
2018-07-06T12:43:21.363Z,32.75
2018-07-06T12:44:21.323Z,32.67
2018-07-06T12:45:21.288Z,32.46
2018-07-06T12:46:21.257Z,32.27
2018-07-06T12:47:21.227Z,32.09
2018-07-06T12:48:21.192Z,32.15
2018-07-06T12:49:21.159Z,31.90
2018-07-06T12:50:21.129Z,31.85
2018-07-06T12:51:21.091Z,31.73
2018-07-06T12:52:21.060Z,31.54
2018-07-06T12:53:21.027Z,31.44